sensor_id;sensor_type;location;lat;lon;timestamp;P1;durP1;ratioP1;P2;durP2;ratioP2
8584;SDS011;7180;52.742;11.420;2023-02-28T00:02:12;9.43;;;8.83;;
8584;SDS011;7180;52.742;11.420;2023-02-28T00:04:38;9.63;;;9.03;;
8584;SDS011;7180;52.742;11.420;2023-02-28T00:07:03;9.90;;;9.30;;
8584;SDS011;7180;52.742;11.420;2023-02-28T00:09:28;9.97;;;9.20;;
8584;SDS011;7180;52.742;11.420;2023-02-28T00:11:53;9.77;;;9.07;;
8584;SDS011;7180;52.742;11.420;2023-02-28T00:14:19;9.60;;;9.00;;
8584;SDS011;7180;52.742;11.420;2023-02-28T00:16:46;12.10;;;11.10;;
8584;SDS011;7180;52.742;11.420;2023-02-28T00:19:11;11.93;;;10.93;;
8584;SDS011;7180;52.742;11.420;2023-02-28T00:21:38;10.90;;;10.10;;
8584;SDS011;7180;52.742;11.420;2023-02-28T00:24:05;10.37;;;9.60;;
8584;SDS011;7180;52.742;11.420;2023-02-28T00:26:31;11.20;;;10.30;;
8584;SDS011;7180;52.742;11.420;2023-02-28T00:28:56;10.73;;;9.80;;
8584;SDS011;7180;52.742;11.420;2023-02-28T00:31:22;9.90;;;9.30;;
8584;SDS011;7180;52.742;11.420;2023-02-28T00:33:47;10.67;;;9.77;;
8584;SDS011;7180;52.742;11.420;2023-02-28T00:36:12;10.87;;;9.97;;
8584;SDS011;7180;52.742;11.420;2023-02-28T00:38:38;10.63;;;9.93;;
8584;SDS011;7180;52.742;11.420;2023-02-28T00:41:05;10.40;;;9.70;;
8584;SDS011;7180;52.742;11.420;2023-02-28T00:43:34;10.40;;;9.60;;
8584;SDS011;7180;52.742;11.420;2023-02-28T00:46:01;10.60;;;9.90;;
8584;SDS011;7180;52.742;11.420;2023-02-28T00:48:27;10.07;;;9.30;;
8584;SDS011;7180;52.742;11.420;2023-02-28T00:50:52;10.20;;;9.47;;
8584;SDS011;7180;52.742;11.420;2023-02-28T00:53:18;11.37;;;10.47;;
8584;SDS011;7180;52.742;11.420;2023-02-28T00:55:43;10.53;;;9.73;;
8584;SDS011;7180;52.742;11.420;2023-02-28T00:58:08;10.80;;;10.00;;
8584;SDS011;7180;52.742;11.420;2023-02-28T01:00:34;10.37;;;9.60;;
8584;SDS011;7180;52.742;11.420;2023-02-28T01:02:59;10.10;;;9.50;;
8584;SDS011;7180;52.742;11.420;2023-02-28T01:05:24;9.67;;;8.97;;
8584;SDS011;7180;52.742;11.420;2023-02-28T01:07:49;9.70;;;9.10;;
8584;SDS011;7180;52.742;11.420;2023-02-28T01:10:15;9.40;;;8.80;;
8584;SDS011;7180;52.742;11.420;2023-02-28T01:12:40;10.23;;;9.43;;
8584;SDS011;7180;52.742;11.420;2023-02-28T01:15:06;10.37;;;9.67;;
8584;SDS011;7180;52.742;11.420;2023-02-28T01:17:31;10.10;;;9.40;;
8584;SDS011;7180;52.742;11.420;2023-02-28T01:19:57;10.00;;;9.13;;
8584;SDS011;7180;52.742;11.420;2023-02-28T01:22:22;9.93;;;9.33;;
8584;SDS011;7180;52.742;11.420;2023-02-28T01:24:47;10.20;;;9.57;;
8584;SDS011;7180;52.742;11.420;2023-02-28T01:27:13;9.67;;;8.90;;
8584;SDS011;7180;52.742;11.420;2023-02-28T01:29:38;9.70;;;9.10;;
8584;SDS011;7180;52.742;11.420;2023-02-28T01:32:04;9.60;;;9.00;;
8584;SDS011;7180;52.742;11.420;2023-02-28T01:34:29;9.30;;;8.70;;
8584;SDS011;7180;52.742;11.420;2023-02-28T01:36:54;9.60;;;9.00;;
8584;SDS011;7180;52.742;11.420;2023-02-28T01:39:20;9.50;;;8.90;;
8584;SDS011;7180;52.742;11.420;2023-02-28T01:41:45;9.10;;;8.60;;
8584;SDS011;7180;52.742;11.420;2023-02-28T01:47:13;9.23;;;8.73;;
8584;SDS011;7180;52.742;11.420;2023-02-28T01:49:39;9.33;;;8.77;;
8584;SDS011;7180;52.742;11.420;2023-02-28T01:52:04;9.40;;;8.77;;
8584;SDS011;7180;52.742;11.420;2023-02-28T01:54:30;9.40;;;8.80;;
8584;SDS011;7180;52.742;11.420;2023-02-28T01:57:00;9.13;;;8.63;;
8584;SDS011;7180;52.742;11.420;2023-02-28T01:59:29;10.00;;;9.30;;
8584;SDS011;7180;52.742;11.420;2023-02-28T02:02:01;9.23;;;8.63;;
8584;SDS011;7180;52.742;11.420;2023-02-28T02:04:30;9.17;;;8.57;;
8584;SDS011;7180;52.742;11.420;2023-02-28T02:07:02;9.50;;;8.80;;
8584;SDS011;7180;52.742;11.420;2023-02-28T02:09:28;9.50;;;8.90;;
8584;SDS011;7180;52.742;11.420;2023-02-28T02:11:53;10.37;;;9.70;;
8584;SDS011;7180;52.742;11.420;2023-02-28T02:14:30;11.20;;;10.30;;
8584;SDS011;7180;52.742;11.420;2023-02-28T02:20:15;12.33;;;11.30;;
8584;SDS011;7180;52.742;11.420;2023-02-28T02:29:17;11.30;;;10.40;;
8584;SDS011;7180;52.742;11.420;2023-02-28T02:37:43;11.20;;;10.10;;
8584;SDS011;7180;52.742;11.420;2023-02-28T02:40:19;11.20;;;10.40;;
8584;SDS011;7180;52.742;11.420;2023-02-28T02:45:49;11.23;;;10.43;;
8584;SDS011;7180;52.742;11.420;2023-02-28T02:48:19;10.47;;;9.67;;
8584;SDS011;7180;52.742;11.420;2023-02-28T02:50:50;10.80;;;10.07;;
8584;SDS011;7180;52.742;11.420;2023-02-28T02:53:21;10.70;;;10.00;;
8584;SDS011;7180;52.742;11.420;2023-02-28T02:55:51;10.50;;;9.63;;
8584;SDS011;7180;52.742;11.420;2023-02-28T02:58:20;10.43;;;9.73;;
8584;SDS011;7180;52.742;11.420;2023-02-28T03:00:51;11.23;;;10.40;;
8584;SDS011;7180;52.742;11.420;2023-02-28T03:03:19;10.40;;;9.70;;
8584;SDS011;7180;52.742;11.420;2023-02-28T03:05:54;10.03;;;9.43;;
8584;SDS011;7180;52.742;11.420;2023-02-28T03:08:21;10.27;;;9.47;;
8584;SDS011;7180;52.742;11.420;2023-02-28T03:10:48;9.57;;;8.90;;
8584;SDS011;7180;52.742;11.420;2023-02-28T03:13:28;10.87;;;10.17;;
8584;SDS011;7180;52.742;11.420;2023-02-28T03:19:01;10.07;;;9.37;;
8584;SDS011;7180;52.742;11.420;2023-02-28T03:22:11;9.80;;;9.20;;
8584;SDS011;7180;52.742;11.420;2023-02-28T03:24:49;10.43;;;9.73;;
8584;SDS011;7180;52.742;11.420;2023-02-28T03:27:23;10.47;;;9.73;;
8584;SDS011;7180;52.742;11.420;2023-02-28T03:30:06;10.43;;;9.73;;
8584;SDS011;7180;52.742;11.420;2023-02-28T03:32:42;10.30;;;9.20;;
8584;SDS011;7180;52.742;11.420;2023-02-28T03:35:17;9.73;;;9.07;;
8584;SDS011;7180;52.742;11.420;2023-02-28T03:37:46;10.53;;;9.73;;
8584;SDS011;7180;52.742;11.420;2023-02-28T03:40:15;9.97;;;9.37;;
8584;SDS011;7180;52.742;11.420;2023-02-28T03:42:45;10.50;;;9.70;;
8584;SDS011;7180;52.742;11.420;2023-02-28T03:45:25;10.77;;;9.90;;
8584;SDS011;7180;52.742;11.420;2023-02-28T03:47:54;10.87;;;10.07;;
8584;SDS011;7180;52.742;11.420;2023-02-28T03:50:27;10.67;;;9.93;;
8584;SDS011;7180;52.742;11.420;2023-02-28T03:53:04;11.00;;;10.17;;
8584;SDS011;7180;52.742;11.420;2023-02-28T03:55:36;10.57;;;9.87;;
8584;SDS011;7180;52.742;11.420;2023-02-28T03:58:10;10.87;;;9.93;;
8584;SDS011;7180;52.742;11.420;2023-02-28T04:00:46;11.60;;;10.80;;
8584;SDS011;7180;52.742;11.420;2023-02-28T04:03:15;11.23;;;10.33;;
8584;SDS011;7180;52.742;11.420;2023-02-28T04:05:50;11.43;;;10.50;;
8584;SDS011;7180;52.742;11.420;2023-02-28T04:08:18;11.13;;;10.43;;
8584;SDS011;7180;52.742;11.420;2023-02-28T04:10:44;11.53;;;10.63;;
8584;SDS011;7180;52.742;11.420;2023-02-28T04:13:15;12.20;;;11.20;;
8584;SDS011;7180;52.742;11.420;2023-02-28T04:15:41;11.93;;;10.83;;
8584;SDS011;7180;52.742;11.420;2023-02-28T04:18:06;11.60;;;10.40;;
8584;SDS011;7180;52.742;11.420;2023-02-28T04:20:31;12.03;;;11.03;;
8584;SDS011;7180;52.742;11.420;2023-02-28T04:22:56;11.30;;;10.40;;
8584;SDS011;7180;52.742;11.420;2023-02-28T04:25:22;11.40;;;10.50;;
8584;SDS011;7180;52.742;11.420;2023-02-28T04:27:47;10.90;;;10.10;;
8584;SDS011;7180;52.742;11.420;2023-02-28T04:30:12;11.57;;;10.60;;
8584;SDS011;7180;52.742;11.420;2023-02-28T04:32:37;11.50;;;10.60;;
8584;SDS011;7180;52.742;11.420;2023-02-28T04:35:03;11.37;;;10.47;;
8584;SDS011;7180;52.742;11.420;2023-02-28T04:37:28;11.13;;;10.13;;
8584;SDS011;7180;52.742;11.420;2023-02-28T04:39:54;10.80;;;10.00;;
8584;SDS011;7180;52.742;11.420;2023-02-28T04:42:19;11.63;;;10.73;;
8584;SDS011;7180;52.742;11.420;2023-02-28T04:44:45;11.37;;;10.50;;
8584;SDS011;7180;52.742;11.420;2023-02-28T04:47:10;11.37;;;10.40;;
8584;SDS011;7180;52.742;11.420;2023-02-28T04:49:35;11.77;;;10.87;;
8584;SDS011;7180;52.742;11.420;2023-02-28T04:52:01;12.33;;;11.27;;
8584;SDS011;7180;52.742;11.420;2023-02-28T04:54:26;12.33;;;11.20;;
8584;SDS011;7180;52.742;11.420;2023-02-28T04:56:53;12.43;;;11.33;;
8584;SDS011;7180;52.742;11.420;2023-02-28T04:59:19;12.63;;;11.67;;
8584;SDS011;7180;52.742;11.420;2023-02-28T05:01:46;11.70;;;10.87;;
8584;SDS011;7180;52.742;11.420;2023-02-28T05:04:12;13.37;;;12.20;;
8584;SDS011;7180;52.742;11.420;2023-02-28T05:06:38;15.17;;;12.03;;
8584;SDS011;7180;52.742;11.420;2023-02-28T05:09:03;13.57;;;12.30;;
8584;SDS011;7180;52.742;11.420;2023-02-28T05:11:29;14.03;;;12.83;;
8584;SDS011;7180;52.742;11.420;2023-02-28T05:14:00;14.73;;;13.30;;
8584;SDS011;7180;52.742;11.420;2023-02-28T05:16:51;15.37;;;13.67;;
8584;SDS011;7180;52.742;11.420;2023-02-28T05:19:16;17.90;;;14.07;;
8584;SDS011;7180;52.742;11.420;2023-02-28T05:21:48;17.47;;;15.57;;
8584;SDS011;7180;52.742;11.420;2023-02-28T05:24:16;18.33;;;16.33;;
8584;SDS011;7180;52.742;11.420;2023-02-28T05:26:47;18.33;;;15.97;;
8584;SDS011;7180;52.742;11.420;2023-02-28T05:29:13;17.73;;;15.90;;
8584;SDS011;7180;52.742;11.420;2023-02-28T05:31:38;20.60;;;17.37;;
8584;SDS011;7180;52.742;11.420;2023-02-28T05:34:04;18.20;;;15.77;;
8584;SDS011;7180;52.742;11.420;2023-02-28T05:36:29;17.53;;;15.73;;
8584;SDS011;7180;52.742;11.420;2023-02-28T05:38:55;20.60;;;16.87;;
8584;SDS011;7180;52.742;11.420;2023-02-28T05:41:20;19.10;;;17.07;;
8584;SDS011;7180;52.742;11.420;2023-02-28T05:43:46;20.87;;;17.13;;
8584;SDS011;7180;52.742;11.420;2023-02-28T05:46:12;19.33;;;16.27;;
8584;SDS011;7180;52.742;11.420;2023-02-28T05:48:38;22.63;;;18.53;;
8584;SDS011;7180;52.742;11.420;2023-02-28T05:51:06;31.90;;;23.63;;
8584;SDS011;7180;52.742;11.420;2023-02-28T05:53:32;27.37;;;19.67;;
8584;SDS011;7180;52.742;11.420;2023-02-28T05:55:58;25.00;;;18.63;;
8584;SDS011;7180;52.742;11.420;2023-02-28T05:58:23;18.73;;;16.73;;
8584;SDS011;7180;52.742;11.420;2023-02-28T06:00:50;19.43;;;17.33;;
8584;SDS011;7180;52.742;11.420;2023-02-28T06:03:16;21.47;;;18.33;;
8584;SDS011;7180;52.742;11.420;2023-02-28T06:05:41;22.10;;;18.00;;
8584;SDS011;7180;52.742;11.420;2023-02-28T06:08:06;19.30;;;17.20;;
8584;SDS011;7180;52.742;11.420;2023-02-28T06:10:32;17.40;;;15.57;;
8584;SDS011;7180;52.742;11.420;2023-02-28T06:13:02;20.00;;;17.00;;
8584;SDS011;7180;52.742;11.420;2023-02-28T06:15:28;20.23;;;16.60;;
8584;SDS011;7180;52.742;11.420;2023-02-28T06:17:54;20.07;;;17.07;;
8584;SDS011;7180;52.742;11.420;2023-02-28T06:20:21;21.37;;;17.17;;
8584;SDS011;7180;52.742;11.420;2023-02-28T06:22:47;22.40;;;19.03;;
8584;SDS011;7180;52.742;11.420;2023-02-28T06:25:12;22.40;;;18.03;;
8584;SDS011;7180;52.742;11.420;2023-02-28T06:27:38;20.20;;;16.97;;
8584;SDS011;7180;52.742;11.420;2023-02-28T06:30:03;21.83;;;16.80;;
8584;SDS011;7180;52.742;11.420;2023-02-28T06:32:29;19.40;;;17.30;;
8584;SDS011;7180;52.742;11.420;2023-02-28T06:34:54;19.90;;;16.33;;
8584;SDS011;7180;52.742;11.420;2023-02-28T06:37:19;19.10;;;16.30;;
8584;SDS011;7180;52.742;11.420;2023-02-28T06:39:45;21.40;;;17.00;;
8584;SDS011;7180;52.742;11.420;2023-02-28T06:42:10;20.37;;;17.43;;
8584;SDS011;7180;52.742;11.420;2023-02-28T06:44:35;21.17;;;18.60;;
8584;SDS011;7180;52.742;11.420;2023-02-28T06:47:01;23.40;;;18.37;;
8584;SDS011;7180;52.742;11.420;2023-02-28T06:49:28;23.13;;;18.47;;
8584;SDS011;7180;52.742;11.420;2023-02-28T06:51:55;23.10;;;20.00;;
8584;SDS011;7180;52.742;11.420;2023-02-28T06:54:20;25.93;;;20.00;;
8584;SDS011;7180;52.742;11.420;2023-02-28T06:59:20;20.47;;;17.43;;
8584;SDS011;7180;52.742;11.420;2023-02-28T07:01:46;20.83;;;18.47;;
8584;SDS011;7180;52.742;11.420;2023-02-28T07:04:11;19.80;;;17.13;;
8584;SDS011;7180;52.742;11.420;2023-02-28T07:06:38;21.53;;;18.17;;
8584;SDS011;7180;52.742;11.420;2023-02-28T07:09:03;21.20;;;18.17;;
8584;SDS011;7180;52.742;11.420;2023-02-28T07:11:29;19.63;;;17.53;;
8584;SDS011;7180;52.742;11.420;2023-02-28T07:13:55;19.23;;;17.23;;
8584;SDS011;7180;52.742;11.420;2023-02-28T07:16:21;20.53;;;17.50;;
8584;SDS011;7180;52.742;11.420;2023-02-28T07:18:48;19.87;;;17.67;;
8584;SDS011;7180;52.742;11.420;2023-02-28T07:21:13;18.70;;;16.97;;
8584;SDS011;7180;52.742;11.420;2023-02-28T07:23:38;21.97;;;19.67;;
8584;SDS011;7180;52.742;11.420;2023-02-28T07:26:05;21.53;;;19.17;;
8584;SDS011;7180;52.742;11.420;2023-02-28T07:28:31;20.10;;;18.00;;
8584;SDS011;7180;52.742;11.420;2023-02-28T07:30:56;19.30;;;16.50;;
8584;SDS011;7180;52.742;11.420;2023-02-28T07:33:21;12.87;;;11.93;;
8584;SDS011;7180;52.742;11.420;2023-02-28T07:35:48;12.50;;;11.60;;
8584;SDS011;7180;52.742;11.420;2023-02-28T07:38:14;12.07;;;11.27;;
8584;SDS011;7180;52.742;11.420;2023-02-28T07:40:40;12.47;;;11.60;;
8584;SDS011;7180;52.742;11.420;2023-02-28T07:43:05;12.77;;;11.87;;
8584;SDS011;7180;52.742;11.420;2023-02-28T07:45:30;13.10;;;12.10;;
8584;SDS011;7180;52.742;11.420;2023-02-28T07:47:59;12.60;;;11.70;;
8584;SDS011;7180;52.742;11.420;2023-02-28T07:50:24;13.07;;;12.17;;
8584;SDS011;7180;52.742;11.420;2023-02-28T07:52:49;14.10;;;13.10;;
8584;SDS011;7180;52.742;11.420;2023-02-28T07:55:15;13.93;;;12.87;;
8584;SDS011;7180;52.742;11.420;2023-02-28T07:57:41;14.17;;;13.13;;
8584;SDS011;7180;52.742;11.420;2023-02-28T08:00:08;14.20;;;13.20;;
8584;SDS011;7180;52.742;11.420;2023-02-28T08:02:35;14.13;;;13.00;;
8584;SDS011;7180;52.742;11.420;2023-02-28T08:05:00;13.73;;;12.80;;
8584;SDS011;7180;52.742;11.420;2023-02-28T08:07:26;14.70;;;13.50;;
8584;SDS011;7180;52.742;11.420;2023-02-28T08:09:51;14.47;;;13.30;;
8584;SDS011;7180;52.742;11.420;2023-02-28T08:12:16;13.90;;;12.90;;
8584;SDS011;7180;52.742;11.420;2023-02-28T08:14:42;13.77;;;12.67;;
8584;SDS011;7180;52.742;11.420;2023-02-28T08:17:07;13.90;;;12.77;;
8584;SDS011;7180;52.742;11.420;2023-02-28T08:19:32;13.03;;;12.03;;
8584;SDS011;7180;52.742;11.420;2023-02-28T08:21:58;12.30;;;11.53;;
8584;SDS011;7180;52.742;11.420;2023-02-28T08:24:23;12.97;;;12.17;;
8584;SDS011;7180;52.742;11.420;2023-02-28T08:26:49;12.80;;;11.90;;
8584;SDS011;7180;52.742;11.420;2023-02-28T08:29:14;13.70;;;12.70;;
8584;SDS011;7180;52.742;11.420;2023-02-28T08:31:39;13.20;;;12.20;;
8584;SDS011;7180;52.742;11.420;2023-02-28T08:34:06;12.57;;;11.57;;
8584;SDS011;7180;52.742;11.420;2023-02-28T08:36:36;12.67;;;11.63;;
8584;SDS011;7180;52.742;11.420;2023-02-28T08:39:02;12.10;;;11.20;;
8584;SDS011;7180;52.742;11.420;2023-02-28T08:41:28;12.43;;;11.63;;
8584;SDS011;7180;52.742;11.420;2023-02-28T08:43:53;13.13;;;12.07;;
8584;SDS011;7180;52.742;11.420;2023-02-28T08:46:18;14.47;;;13.37;;
8584;SDS011;7180;52.742;11.420;2023-02-28T08:48:44;14.17;;;12.97;;
8584;SDS011;7180;52.742;11.420;2023-02-28T08:51:11;13.57;;;12.40;;
8584;SDS011;7180;52.742;11.420;2023-02-28T08:53:39;13.37;;;12.37;;
8584;SDS011;7180;52.742;11.420;2023-02-28T08:58:31;12.70;;;11.67;;
8584;SDS011;7180;52.742;11.420;2023-02-28T09:00:58;13.00;;;11.90;;
8584;SDS011;7180;52.742;11.420;2023-02-28T09:03:23;13.13;;;12.13;;
8584;SDS011;7180;52.742;11.420;2023-02-28T09:05:56;12.73;;;11.73;;
8584;SDS011;7180;52.742;11.420;2023-02-28T09:08:23;12.73;;;11.73;;
8584;SDS011;7180;52.742;11.420;2023-02-28T09:10:49;11.83;;;10.93;;
8584;SDS011;7180;52.742;11.420;2023-02-28T09:13:14;13.23;;;11.93;;
8584;SDS011;7180;52.742;11.420;2023-02-28T09:15:40;12.10;;;11.30;;
8584;SDS011;7180;52.742;11.420;2023-02-28T09:18:05;12.20;;;11.13;;
8584;SDS011;7180;52.742;11.420;2023-02-28T09:20:30;15.50;;;12.80;;
8584;SDS011;7180;52.742;11.420;2023-02-28T09:22:55;15.53;;;14.10;;
8584;SDS011;7180;52.742;11.420;2023-02-28T09:25:21;14.50;;;13.30;;
8584;SDS011;7180;52.742;11.420;2023-02-28T09:27:46;98.33;;;60.63;;
8584;SDS011;7180;52.742;11.420;2023-02-28T09:30:12;42.40;;;35.10;;
8584;SDS011;7180;52.742;11.420;2023-02-28T09:32:37;12.97;;;11.97;;
8584;SDS011;7180;52.742;11.420;2023-02-28T09:35:03;12.90;;;11.80;;
8584;SDS011;7180;52.742;11.420;2023-02-28T09:37:28;12.60;;;11.60;;
8584;SDS011;7180;52.742;11.420;2023-02-28T09:39:55;11.87;;;10.87;;
8584;SDS011;7180;52.742;11.420;2023-02-28T09:42:21;12.17;;;10.97;;
8584;SDS011;7180;52.742;11.420;2023-02-28T09:44:54;12.60;;;11.40;;
8584;SDS011;7180;52.742;11.420;2023-02-28T09:47:31;11.03;;;10.27;;
8584;SDS011;7180;52.742;11.420;2023-02-28T09:52:45;11.47;;;10.67;;
8584;SDS011;7180;52.742;11.420;2023-02-28T09:57:40;11.40;;;10.50;;
8584;SDS011;7180;52.742;11.420;2023-02-28T10:00:23;11.93;;;11.03;;
8584;SDS011;7180;52.742;11.420;2023-02-28T10:02:55;11.17;;;10.37;;
8584;SDS011;7180;52.742;11.420;2023-02-28T10:05:24;11.73;;;10.70;;
8584;SDS011;7180;52.742;11.420;2023-02-28T10:08:13;11.87;;;10.93;;
8584;SDS011;7180;52.742;11.420;2023-02-28T10:10:45;14.97;;;13.47;;
8584;SDS011;7180;52.742;11.420;2023-02-28T10:13:16;12.90;;;11.80;;
8584;SDS011;7180;52.742;11.420;2023-02-28T10:15:47;11.47;;;10.70;;
8584;SDS011;7180;52.742;11.420;2023-02-28T10:18:19;11.70;;;10.60;;
8584;SDS011;7180;52.742;11.420;2023-02-28T10:20:49;11.80;;;10.90;;
8584;SDS011;7180;52.742;11.420;2023-02-28T10:23:20;11.43;;;10.60;;
8584;SDS011;7180;52.742;11.420;2023-02-28T10:25:54;11.20;;;10.47;;
8584;SDS011;7180;52.742;11.420;2023-02-28T10:28:41;11.20;;;10.40;;
8584;SDS011;7180;52.742;11.420;2023-02-28T10:31:08;10.77;;;10.07;;
8584;SDS011;7180;52.742;11.420;2023-02-28T10:33:39;11.03;;;10.23;;
8584;SDS011;7180;52.742;11.420;2023-02-28T10:36:04;11.10;;;10.30;;
8584;SDS011;7180;52.742;11.420;2023-02-28T10:38:35;11.20;;;10.40;;
8584;SDS011;7180;52.742;11.420;2023-02-28T10:41:06;10.97;;;10.27;;
8584;SDS011;7180;52.742;11.420;2023-02-28T10:43:38;10.23;;;9.63;;
8584;SDS011;7180;52.742;11.420;2023-02-28T10:50:58;10.70;;;9.93;;
8584;SDS011;7180;52.742;11.420;2023-02-28T10:53:33;10.27;;;9.57;;
8584;SDS011;7180;52.742;11.420;2023-02-28T10:58:50;10.47;;;9.77;;
8584;SDS011;7180;52.742;11.420;2023-02-28T11:01:38;10.10;;;9.40;;
8584;SDS011;7180;52.742;11.420;2023-02-28T11:07:20;9.30;;;8.70;;
8584;SDS011;7180;52.742;11.420;2023-02-28T11:09:51;10.00;;;9.40;;
8584;SDS011;7180;52.742;11.420;2023-02-28T11:12:37;9.17;;;8.57;;
8584;SDS011;7180;52.742;11.420;2023-02-28T11:15:28;9.10;;;8.60;;
8584;SDS011;7180;52.742;11.420;2023-02-28T11:20:42;8.97;;;8.47;;
8584;SDS011;7180;52.742;11.420;2023-02-28T11:23:14;8.73;;;8.23;;
8584;SDS011;7180;52.742;11.420;2023-02-28T11:25:45;8.93;;;8.43;;
8584;SDS011;7180;52.742;11.420;2023-02-28T11:28:25;9.63;;;8.90;;
8584;SDS011;7180;52.742;11.420;2023-02-28T11:33:41;8.83;;;8.30;;
8584;SDS011;7180;52.742;11.420;2023-02-28T11:36:28;9.17;;;8.53;;
8584;SDS011;7180;52.742;11.420;2023-02-28T11:38:59;8.80;;;8.30;;
8584;SDS011;7180;52.742;11.420;2023-02-28T11:41:39;8.90;;;8.20;;
8584;SDS011;7180;52.742;11.420;2023-02-28T11:50:22;8.83;;;8.33;;
8584;SDS011;7180;52.742;11.420;2023-02-28T11:53:22;9.77;;;9.07;;
8584;SDS011;7180;52.742;11.420;2023-02-28T11:56:03;9.00;;;8.40;;
8584;SDS011;7180;52.742;11.420;2023-02-28T12:01:27;8.67;;;8.17;;
8584;SDS011;7180;52.742;11.420;2023-02-28T12:07:18;9.47;;;8.80;;
8584;SDS011;7180;52.742;11.420;2023-02-28T12:12:27;9.40;;;8.80;;
8584;SDS011;7180;52.742;11.420;2023-02-28T12:17:31;9.30;;;8.70;;
8584;SDS011;7180;52.742;11.420;2023-02-28T12:20:16;9.30;;;8.80;;
8584;SDS011;7180;52.742;11.420;2023-02-28T12:25:43;9.20;;;8.70;;
8584;SDS011;7180;52.742;11.420;2023-02-28T12:28:27;9.40;;;8.80;;
8584;SDS011;7180;52.742;11.420;2023-02-28T12:33:43;8.67;;;8.10;;
8584;SDS011;7180;52.742;11.420;2023-02-28T12:36:17;8.50;;;8.00;;
8584;SDS011;7180;52.742;11.420;2023-02-28T12:39:34;9.10;;;8.60;;
8584;SDS011;7180;52.742;11.420;2023-02-28T12:44:19;9.10;;;8.60;;
8584;SDS011;7180;52.742;11.420;2023-02-28T12:46:49;8.77;;;8.27;;
8584;SDS011;7180;52.742;11.420;2023-02-28T12:51:56;9.30;;;8.80;;
8584;SDS011;7180;52.742;11.420;2023-02-28T12:54:33;9.50;;;8.90;;
8584;SDS011;7180;52.742;11.420;2023-02-28T13:08:51;9.03;;;8.43;;
8584;SDS011;7180;52.742;11.420;2023-02-28T13:11:25;8.30;;;7.80;;
8584;SDS011;7180;52.742;11.420;2023-02-28T13:13:57;9.03;;;8.43;;
8584;SDS011;7180;52.742;11.420;2023-02-28T13:16:27;8.77;;;8.17;;
8584;SDS011;7180;52.742;11.420;2023-02-28T13:18:53;9.20;;;8.50;;
8584;SDS011;7180;52.742;11.420;2023-02-28T13:21:41;9.03;;;8.40;;
8584;SDS011;7180;52.742;11.420;2023-02-28T13:24:08;8.97;;;8.47;;
8584;SDS011;7180;52.742;11.420;2023-02-28T13:34:34;9.30;;;8.73;;
8584;SDS011;7180;52.742;11.420;2023-02-28T13:39:54;9.40;;;8.77;;
8584;SDS011;7180;52.742;11.420;2023-02-28T13:42:32;9.23;;;8.63;;
8584;SDS011;7180;52.742;11.420;2023-02-28T13:47:44;9.40;;;8.80;;
8584;SDS011;7180;52.742;11.420;2023-02-28T13:50:21;9.57;;;8.97;;
8584;SDS011;7180;52.742;11.420;2023-02-28T13:59:03;9.10;;;8.50;;
8584;SDS011;7180;52.742;11.420;2023-02-28T14:01:56;9.37;;;8.77;;
8584;SDS011;7180;52.742;11.420;2023-02-28T14:04:39;8.90;;;8.30;;
8584;SDS011;7180;52.742;11.420;2023-02-28T14:07:07;9.27;;;8.67;;
8584;SDS011;7180;52.742;11.420;2023-02-28T14:09:45;8.90;;;8.40;;
8584;SDS011;7180;52.742;11.420;2023-02-28T14:15:27;9.47;;;8.87;;
8584;SDS011;7180;52.742;11.420;2023-02-28T14:18:01;9.37;;;8.87;;
8584;SDS011;7180;52.742;11.420;2023-02-28T14:20:29;9.43;;;8.83;;
8584;SDS011;7180;52.742;11.420;2023-02-28T14:25:33;9.33;;;8.63;;
8584;SDS011;7180;52.742;11.420;2023-02-28T14:34:04;9.07;;;8.47;;
8584;SDS011;7180;52.742;11.420;2023-02-28T14:36:42;9.27;;;8.73;;
8584;SDS011;7180;52.742;11.420;2023-02-28T14:39:11;8.70;;;8.20;;
8584;SDS011;7180;52.742;11.420;2023-02-28T14:41:40;9.10;;;8.60;;
8584;SDS011;7180;52.742;11.420;2023-02-28T14:44:14;9.20;;;8.60;;
8584;SDS011;7180;52.742;11.420;2023-02-28T14:46:46;9.07;;;8.57;;
8584;SDS011;7180;52.742;11.420;2023-02-28T14:49:34;9.03;;;8.53;;
8584;SDS011;7180;52.742;11.420;2023-02-28T14:54:54;9.20;;;8.70;;
8584;SDS011;7180;52.742;11.420;2023-02-28T14:59:59;9.40;;;8.90;;
8584;SDS011;7180;52.742;11.420;2023-02-28T15:02:30;9.57;;;8.97;;
8584;SDS011;7180;52.742;11.420;2023-02-28T15:04:59;9.40;;;8.90;;
8584;SDS011;7180;52.742;11.420;2023-02-28T15:07:27;8.97;;;8.43;;
8584;SDS011;7180;52.742;11.420;2023-02-28T15:12:57;8.90;;;8.30;;
8584;SDS011;7180;52.742;11.420;2023-02-28T15:15:26;9.77;;;9.17;;
8584;SDS011;7180;52.742;11.420;2023-02-28T15:17:58;9.10;;;8.53;;
8584;SDS011;7180;52.742;11.420;2023-02-28T15:20:25;8.43;;;8.00;;
8584;SDS011;7180;52.742;11.420;2023-02-28T15:22:51;8.63;;;8.13;;
8584;SDS011;7180;52.742;11.420;2023-02-28T15:25:20;8.60;;;8.00;;
8584;SDS011;7180;52.742;11.420;2023-02-28T15:27:49;9.07;;;8.47;;
8584;SDS011;7180;52.742;11.420;2023-02-28T15:30:35;8.83;;;7.97;;
8584;SDS011;7180;52.742;11.420;2023-02-28T15:35:36;8.20;;;7.70;;
8584;SDS011;7180;52.742;11.420;2023-02-28T15:38:17;8.50;;;8.00;;
8584;SDS011;7180;52.742;11.420;2023-02-28T15:40:53;8.10;;;7.50;;
8584;SDS011;7180;52.742;11.420;2023-02-28T15:43:27;7.60;;;7.20;;
8584;SDS011;7180;52.742;11.420;2023-02-28T15:48:32;8.67;;;8.17;;
8584;SDS011;7180;52.742;11.420;2023-02-28T15:51:01;8.50;;;8.00;;
8584;SDS011;7180;52.742;11.420;2023-02-28T15:53:33;8.97;;;8.40;;
8584;SDS011;7180;52.742;11.420;2023-02-28T15:56:45;9.50;;;8.90;;
8584;SDS011;7180;52.742;11.420;2023-02-28T15:58:53;9.20;;;8.60;;
8584;SDS011;7180;52.742;11.420;2023-02-28T16:01:36;9.10;;;8.50;;
8584;SDS011;7180;52.742;11.420;2023-02-28T16:04:04;10.40;;;9.60;;
8584;SDS011;7180;52.742;11.420;2023-02-28T16:06:42;10.30;;;9.50;;
8584;SDS011;7180;52.742;11.420;2023-02-28T16:09:13;10.37;;;9.60;;
8584;SDS011;7180;52.742;11.420;2023-02-28T16:11:41;10.63;;;9.73;;
8584;SDS011;7180;52.742;11.420;2023-02-28T16:14:13;13.10;;;11.80;;
8584;SDS011;7180;52.742;11.420;2023-02-28T16:16:42;12.03;;;10.97;;
8584;SDS011;7180;52.742;11.420;2023-02-28T16:19:09;11.77;;;10.77;;
8584;SDS011;7180;52.742;11.420;2023-02-28T16:21:34;12.43;;;11.20;;
8584;SDS011;7180;52.742;11.420;2023-02-28T16:23:59;15.33;;;12.07;;
8584;SDS011;7180;52.742;11.420;2023-02-28T16:26:25;18.80;;;15.07;;
8584;SDS011;7180;52.742;11.420;2023-02-28T16:28:52;18.30;;;14.00;;
8584;SDS011;7180;52.742;11.420;2023-02-28T16:31:18;20.80;;;15.90;;
8584;SDS011;7180;52.742;11.420;2023-02-28T16:33:44;42.17;;;25.70;;
8584;SDS011;7180;52.742;11.420;2023-02-28T16:36:14;39.90;;;26.20;;
8584;SDS011;7180;52.742;11.420;2023-02-28T16:38:43;19.40;;;16.67;;
8584;SDS011;7180;52.742;11.420;2023-02-28T16:41:11;13.77;;;12.43;;
8584;SDS011;7180;52.742;11.420;2023-02-28T16:43:42;12.13;;;10.93;;
8584;SDS011;7180;52.742;11.420;2023-02-28T16:46:10;10.10;;;9.20;;
8584;SDS011;7180;52.742;11.420;2023-02-28T16:48:36;10.40;;;9.60;;
8584;SDS011;7180;52.742;11.420;2023-02-28T16:51:02;10.53;;;9.63;;
8584;SDS011;7180;52.742;11.420;2023-02-28T16:53:29;10.47;;;9.67;;
8584;SDS011;7180;52.742;11.420;2023-02-28T16:55:54;10.43;;;9.53;;
8584;SDS011;7180;52.742;11.420;2023-02-28T16:58:19;10.70;;;9.93;;
8584;SDS011;7180;52.742;11.420;2023-02-28T17:00:46;10.67;;;9.87;;
8584;SDS011;7180;52.742;11.420;2023-02-28T17:03:32;10.10;;;9.37;;
8584;SDS011;7180;52.742;11.420;2023-02-28T17:05:57;11.17;;;10.27;;
8584;SDS011;7180;52.742;11.420;2023-02-28T17:08:22;11.53;;;10.63;;
8584;SDS011;7180;52.742;11.420;2023-02-28T17:10:48;12.70;;;11.60;;
8584;SDS011;7180;52.742;11.420;2023-02-28T17:13:13;17.87;;;15.97;;
8584;SDS011;7180;52.742;11.420;2023-02-28T17:15:38;18.63;;;15.50;;